Time;durP1;ratioP1;P1;durP2;ratioP2;P2;SDS_P1;SDS_P2;PMS_P1;PMS_P2;Temp;Humidity;BMP_temperature;BMP_pressure;BME280_temperature;BME280_humidity;BME280_pressure;Samples;Min_cycle;Max_cycle;Signal;HPM_P1;HPM_P2
2021/04/14 00:00:29;;;;;;;17.85;11.25;;;4.10;99.90;;;;;;5069552;28;20021;-68
2021/04/14 00:02:56;;;;;;;18.30;12.43;;;4.10;99.90;;;;;;5069343;28;20504;-67
2021/04/14 00:05:25;;;;;;;19.30;12.07;;;4.10;99.90;;;;;;5074185;28;20024;-67
2021/04/14 00:07:51;;;;;;;18.08;11.48;;;4.10;99.90;;;;;;5070630;28;20103;-67
2021/04/14 00:10:26;;;;;;;22.10;12.65;;;4.10;99.90;;;;;;5067029;28;20132;-67
2021/04/14 00:12:52;;;;;;;20.90;12.63;;;4.00;99.90;;;;;;5069359;28;20054;-67
2021/04/14 00:15:24;;;;;;;18.88;12.52;;;3.90;99.90;;;;;;5069266;28;20066;-67
2021/04/14 00:17:50;;;;;;;19.13;12.70;;;3.90;99.90;;;;;;5068057;28;20024;-68
2021/04/14 00:20:16;;;;;;;20.60;12.82;;;4.00;99.90;;;;;;5069050;28;20077;-67
2021/04/14 00:22:42;;;;;;;20.35;12.35;;;4.00;99.90;;;;;;5062551;28;20107;-67
2021/04/14 00:25:12;;;;;;;21.85;12.75;;;4.00;99.90;;;;;;5078215;28;20064;-67
2021/04/14 00:27:38;;;;;;;22.67;13.05;;;4.00;99.90;;;;;;5069111;28;20016;-67
2021/04/14 00:30:07;;;;;;;15.60;10.80;;;3.90;99.90;;;;;;5063988;28;20386;-67
2021/04/14 00:32:32;;;;;;;18.77;11.88;;;3.90;99.90;;;;;;5069445;28;20103;-68
2021/04/14 00:34:58;;;;;;;18.50;12.15;;;3.80;99.90;;;;;;5060961;28;20120;-67
2021/04/14 00:37:24;;;;;;;18.92;11.82;;;3.90;99.90;;;;;;5069524;28;20031;-67
2021/04/14 00:39:49;;;;;;;20.05;13.05;;;3.90;99.90;;;;;;5065154;28;20027;-68
2021/04/14 00:42:15;;;;;;;19.98;12.23;;;3.90;99.90;;;;;;5073579;28;20039;-67
2021/04/14 00:44:40;;;;;;;15.60;11.25;;;3.80;99.90;;;;;;5070623;28;20116;-67
2021/04/14 00:47:06;;;;;;;16.25;11.27;;;3.70;99.90;;;;;;5071570;28;20107;-67
2021/04/14 00:49:32;;;;;;;17.98;11.48;;;3.60;99.90;;;;;;5063180;28;20035;-67
2021/04/14 00:51:57;;;;;;;18.55;11.45;;;3.60;99.90;;;;;;5068156;28;20020;-68
2021/04/14 00:54:23;;;;;;;20.52;10.93;;;3.60;99.90;;;;;;5073375;28;20503;-67
2021/04/14 00:56:48;;;;;;;21.65;11.55;;;3.60;99.90;;;;;;5064753;28;20040;-67
2021/04/14 00:59:14;;;;;;;19.20;12.45;;;3.60;99.90;;;;;;5066709;28;20118;-67
2021/04/14 01:01:39;;;;;;;17.80;11.02;;;3.60;99.90;;;;;;5069926;28;20028;-67
2021/04/14 01:04:05;;;;;;;17.38;10.32;;;3.60;99.90;;;;;;5069641;28;20028;-67
2021/04/14 01:06:31;;;;;;;19.05;11.40;;;3.60;99.90;;;;;;5069823;28;20021;-67
2021/04/14 01:08:58;;;;;;;20.00;10.75;;;3.70;99.90;;;;;;5067664;28;20104;-67
2021/04/14 01:11:28;;;;;;;17.88;10.95;;;3.70;99.90;;;;;;5065106;28;20040;-67
2021/04/14 01:13:54;;;;;;;19.67;11.20;;;3.70;99.90;;;;;;5070560;28;20020;-67
2021/04/14 01:16:20;;;;;;;17.58;11.32;;;3.80;99.90;;;;;;5070064;28;20460;-67
2021/04/14 01:18:45;;;;;;;18.23;10.57;;;3.80;99.90;;;;;;5067842;28;20526;-67
2021/04/14 01:21:22;;;;;;;21.27;11.43;;;3.80;99.90;;;;;;5066812;28;20104;-67
2021/04/14 01:23:49;;;;;;;15.65;10.10;;;3.80;99.90;;;;;;5068403;28;20477;-67
2021/04/14 01:26:15;;;;;;;17.48;9.70;;;3.70;99.90;;;;;;5067179;28;20685;-67
2021/04/14 01:28:44;;;;;;;16.33;10.32;;;3.60;99.90;;;;;;5063423;28;20029;-67
2021/04/14 01:31:13;;;;;;;17.73;10.27;;;3.60;99.90;;;;;;5069235;28;20027;-67
2021/04/14 01:33:39;;;;;;;15.00;10.27;;;3.60;99.90;;;;;;5066461;28;20024;-67
2021/04/14 01:36:07;;;;;;;16.40;10.35;;;3.50;99.90;;;;;;5072277;28;20029;-67
2021/04/14 01:38:32;;;;;;;17.15;11.18;;;3.60;99.90;;;;;;5072696;28;20043;-67
2021/04/14 01:40:59;;;;;;;15.93;10.57;;;3.60;99.90;;;;;;5064753;28;20432;-67
2021/04/14 01:43:25;;;;;;;17.15;10.27;;;3.60;99.90;;;;;;5062473;28;20374;-67
2021/04/14 01:45:50;;;;;;;17.58;9.95;;;3.40;99.90;;;;;;5063133;28;20043;-67
2021/04/14 01:48:17;;;;;;;17.75;10.20;;;3.50;99.90;;;;;;5066007;28;20025;-67
2021/04/14 01:50:43;;;;;;;17.65;10.65;;;3.40;99.90;;;;;;5070983;28;20059;-67
2021/04/14 01:53:11;;;;;;;15.82;10.75;;;3.40;99.90;;;;;;5068755;28;20029;-67
2021/04/14 01:55:38;;;;;;;17.05;9.75;;;3.40;99.90;;;;;;5063149;28;20044;-67
2021/04/14 01:58:04;;;;;;;25.25;10.90;;;3.30;99.90;;;;;;5075808;28;20107;-67
2021/04/14 02:00:31;;;;;;;18.98;11.27;;;3.30;99.90;;;;;;5066915;28;20016;-66
2021/04/14 02:02:57;;;;;;;18.13;11.65;;;3.30;99.90;;;;;;5069432;28;20056;-67
2021/04/14 02:05:27;;;;;;;18.08;11.10;;;3.40;99.90;;;;;;5064173;28;20052;-67
2021/04/14 02:07:53;;;;;;;17.05;10.52;;;3.40;99.90;;;;;;5076314;28;20487;-67
2021/04/14 02:10:19;;;;;;;16.77;11.10;;;3.30;99.90;;;;;;5070501;28;20032;-67
2021/04/14 02:12:45;;;;;;;17.13;11.00;;;3.40;99.90;;;;;;5075691;28;20481;-67
2021/04/14 02:15:15;;;;;;;18.50;11.25;;;3.40;99.90;;;;;;5074274;28;20036;-67
2021/04/14 02:17:40;;;;;;;16.30;10.63;;;3.40;99.90;;;;;;5069061;28;20025;-67
2021/04/14 02:20:08;;;;;;;18.90;10.52;;;3.40;99.90;;;;;;5073528;28;20035;-68
2021/04/14 02:22:33;;;;;;;16.80;10.07;;;3.40;99.90;;;;;;5071583;28;20477;-67
2021/04/14 02:24:59;;;;;;;17.23;10.73;;;3.40;99.90;;;;;;5072805;28;20036;-67
2021/04/14 02:27:24;;;;;;;19.88;10.38;;;3.30;99.90;;;;;;5073068;28;20108;-67
2021/04/14 02:29:50;;;;;;;21.23;10.75;;;3.40;99.90;;;;;;5069756;28;20055;-67
2021/04/14 02:32:16;;;;;;;18.95;11.18;;;3.40;99.90;;;;;;5073353;28;20025;-67
2021/04/14 02:34:41;;;;;;;19.92;10.82;;;3.40;99.90;;;;;;5076751;28;20041;-68
2021/04/14 02:37:07;;;;;;;16.08;10.85;;;3.40;99.90;;;;;;5076275;28;20100;-67
2021/04/14 02:39:33;;;;;;;16.38;11.07;;;3.30;99.90;;;;;;5068352;28;20062;-67
2021/04/14 02:41:58;;;;;;;18.13;11.30;;;3.40;99.90;;;;;;5072019;28;20108;-67
2021/04/14 02:44:25;;;;;;;17.33;10.98;;;3.50;99.90;;;;;;5072449;28;20025;-67
2021/04/14 02:46:51;;;;;;;19.20;11.30;;;3.40;99.90;;;;;;5078230;28;20036;-67
2021/04/14 02:49:16;;;;;;;17.13;10.63;;;3.40;99.90;;;;;;5075183;28;20028;-67
2021/04/14 02:51:42;;;;;;;18.15;11.05;;;3.40;99.90;;;;;;5075934;28;20111;-68
2021/04/14 02:54:08;;;;;;;21.38;11.60;;;3.40;99.90;;;;;;5067788;28;20022;-67
2021/04/14 02:56:33;;;;;;;18.15;11.68;;;3.30;99.90;;;;;;5071340;28;20481;-67
2021/04/14 02:59:00;;;;;;;17.85;11.73;;;3.40;99.90;;;;;;5074667;28;20513;-67
2021/04/14 03:01:27;;;;;;;18.90;12.15;;;3.30;99.90;;;;;;5078746;28;20029;-68
2021/04/14 03:03:57;;;;;;;18.33;11.85;;;3.20;99.90;;;;;;5071301;28;20379;-68
2021/04/14 03:06:23;;;;;;;15.82;11.95;;;3.20;99.90;;;;;;5071612;28;20024;-67
2021/04/14 03:08:48;;;;;;;17.10;10.88;;;3.20;99.90;;;;;;5074603;28;20047;-67
2021/04/14 03:11:14;;;;;;;17.13;11.05;;;3.20;99.90;;;;;;5068025;28;20063;-67
2021/04/14 03:13:40;;;;;;;17.27;10.48;;;3.10;99.90;;;;;;5072839;28;20033;-67
2021/04/14 03:16:06;;;;;;;17.25;11.73;;;3.20;99.90;;;;;;5066386;28;20024;-67
2021/04/14 03:18:31;;;;;;;16.27;11.13;;;3.20;99.90;;;;;;5074233;28;20036;-68
2021/04/14 03:20:57;;;;;;;17.35;11.00;;;3.20;99.90;;;;;;5074765;28;20033;-68
2021/04/14 03:23:23;;;;;;;19.55;11.00;;;3.30;99.90;;;;;;5068443;28;20529;-67
2021/04/14 03:25:49;;;;;;;15.63;11.05;;;3.40;99.90;;;;;;5068575;28;20029;-68
2021/04/14 03:28:15;;;;;;;16.42;10.50;;;3.40;99.90;;;;;;5075937;28;20021;-67
2021/04/14 03:30:42;;;;;;;17.63;10.88;;;3.50;99.90;;;;;;5072269;28;20035;-67
2021/04/14 03:33:08;;;;;;;17.40;11.05;;;3.50;99.90;;;;;;5073200;28;20369;-67
2021/04/14 03:35:34;;;;;;;16.92;11.15;;;3.50;99.90;;;;;;5067546;28;20024;-67
2021/04/14 03:38:01;;;;;;;18.27;10.65;;;3.50;99.90;;;;;;5069986;28;20021;-67
2021/04/14 03:40:28;;;;;;;17.05;9.82;;;3.60;99.90;;;;;;5078893;28;20484;-66
2021/04/14 03:42:54;;;;;;;17.77;11.70;;;3.60;99.90;;;;;;5070708;28;20025;-67
2021/04/14 03:45:27;;;;;;;18.92;11.27;;;3.60;99.90;;;;;;5076195;28;20469;-67
2021/04/14 03:47:53;;;;;;;20.67;10.70;;;3.50;99.90;;;;;;5073750;28;20028;-67
2021/04/14 03:50:19;;;;;;;19.35;11.63;;;3.40;99.90;;;;;;5067628;28;20040;-67
2021/04/14 03:52:45;;;;;;;19.02;11.68;;;3.40;99.90;;;;;;5071601;28;20485;-67
2021/04/14 03:55:13;;;;;;;14.18;9.88;;;3.50;99.90;;;;;;5072743;28;20035;-67
2021/04/14 03:57:38;;;;;;;19.08;11.45;;;3.40;99.90;;;;;;5077255;28;20012;-67
2021/04/14 04:00:06;;;;;;;19.15;11.50;;;3.50;99.90;;;;;;5072827;28;20495;-67
2021/04/14 04:02:32;;;;;;;19.00;11.85;;;3.50;99.90;;;;;;5072818;28;20071;-67
2021/04/14 04:04:57;;;;;;;19.25;12.50;;;3.40;99.90;;;;;;5076468;28;20056;-67
2021/04/14 04:07:23;;;;;;;23.83;11.80;;;3.40;99.90;;;;;;5065776;28;20503;-67
2021/04/14 04:09:48;;;;;;;18.90;12.15;;;3.40;99.90;;;;;;5072437;28;20537;-67
2021/04/14 04:12:14;;;;;;;20.55;12.57;;;3.40;99.90;;;;;;5070641;28;20025;-67
2021/04/14 04:14:47;;;;;;;17.67;11.45;;;3.40;99.90;;;;;;5075374;28;20024;-67
2021/04/14 04:17:15;;;;;;;19.88;11.95;;;3.40;99.90;;;;;;5072900;28;20433;-67
2021/04/14 04:19:41;;;;;;;19.30;12.07;;;3.40;99.90;;;;;;5067209;28;20476;-67
2021/04/14 04:22:07;;;;;;;19.65;12.73;;;3.40;99.90;;;;;;5071211;28;20036;-66
2021/04/14 04:24:33;;;;;;;17.90;11.13;;;3.30;99.90;;;;;;5076433;28;20032;-67
2021/04/14 04:26:59;;;;;;;20.63;12.35;;;3.30;99.90;;;;;;5073487;28;20059;-67
2021/04/14 04:29:25;;;;;;;20.65;12.43;;;3.30;99.90;;;;;;5072535;28;20078;-67
2021/04/14 04:31:51;;;;;;;16.30;12.05;;;3.30;99.90;;;;;;5072954;28;20025;-67
2021/04/14 04:34:16;;;;;;;19.42;12.57;;;3.20;99.90;;;;;;5069838;28;20086;-67
2021/04/14 04:36:42;;;;;;;16.15;11.52;;;3.10;99.90;;;;;;5072008;28;20034;-67
2021/04/14 04:39:07;;;;;;;16.15;10.20;;;3.00;99.90;;;;;;5072772;28;20035;-67
2021/04/14 04:41:33;;;;;;;15.05;11.07;;;2.90;99.90;;;;;;5070506;28;20024;-67
2021/04/14 04:43:59;;;;;;;16.30;10.18;;;2.90;99.90;;;;;;5075182;28;20036;-67
2021/04/14 04:46:25;;;;;;;19.40;10.70;;;2.80;99.90;;;;;;5074616;28;20541;-67
2021/04/14 04:48:50;;;;;;;17.75;11.13;;;2.90;99.90;;;;;;5073777;28;20044;-67
2021/04/14 04:51:16;;;;;;;17.73;10.77;;;2.70;99.90;;;;;;5075227;28;20023;-67
2021/04/14 04:53:42;;;;;;;18.50;10.85;;;2.70;99.90;;;;;;5073154;28;20059;-68
2021/04/14 04:56:07;;;;;;;16.35;11.70;;;2.70;99.90;;;;;;5072708;28;20027;-67
2021/04/14 04:58:33;;;;;;;15.80;11.02;;;2.70;99.90;;;;;;5075344;28;20024;-67
2021/04/14 05:00:59;;;;;;;17.08;10.02;;;2.70;99.90;;;;;;5072894;28;20086;-67
2021/04/14 05:03:28;;;;;;;21.55;10.20;;;2.70;99.90;;;;;;5077529;28;20073;-67
2021/04/14 05:05:56;;;;;;;16.70;9.82;;;2.70;99.90;;;;;;5067223;28;20021;-67
2021/04/14 05:08:22;;;;;;;16.55;9.65;;;2.70;99.90;;;;;;5076538;28;20024;-67
2021/04/14 05:10:47;;;;;;;17.02;9.70;;;2.80;99.90;;;;;;5069169;28;20043;-67
2021/04/14 05:13:13;;;;;;;17.98;11.02;;;2.80;99.90;;;;;;5073153;28;20491;-67
2021/04/14 05:15:40;;;;;;;20.70;11.45;;;2.70;99.90;;;;;;5069051;28;20031;-67
2021/04/14 05:18:07;;;;;;;17.50;12.13;;;2.80;99.90;;;;;;5071901;28;20469;-67
2021/04/14 05:20:32;;;;;;;16.35;10.73;;;2.90;99.90;;;;;;5067470;28;20038;-67
2021/04/14 05:22:58;;;;;;;17.17;10.73;;;2.90;99.90;;;;;;5065961;28;20021;-67
2021/04/14 05:25:30;;;;;;;17.52;11.55;;;2.90;99.90;;;;;;5072005;28;20095;-67
2021/04/14 05:27:58;;;;;;;21.05;11.25;;;2.90;99.90;;;;;;5074522;28;20027;-67
2021/04/14 05:30:24;;;;;;;18.63;11.70;;;2.90;99.90;;;;;;5071911;28;20043;-67
2021/04/14 05:32:50;;;;;;;18.45;14.23;;;3.00;99.90;;;;;;5066627;28;20028;-67
2021/04/14 05:35:17;;;;;;;20.45;13.52;;;2.90;99.90;;;;;;5077008;28;20024;-67
2021/04/14 05:37:42;;;;;;;19.58;12.45;;;3.00;99.90;;;;;;5075155;28;20012;-68
2021/04/14 05:40:09;;;;;;;16.20;11.32;;;3.00;99.90;;;;;;5070237;28;20366;-68
2021/04/14 05:42:45;;;;;;;19.20;10.73;;;3.00;99.90;;;;;;5069629;28;20032;-68
2021/04/14 05:45:14;;;;;;;18.45;11.00;;;3.00;99.90;;;;;;5074198;28;20020;-67
2021/04/14 05:47:40;;;;;;;18.88;11.93;;;3.00;99.90;;;;;;5072600;28;20024;-67
2021/04/14 05:50:10;;;;;;;20.13;12.68;;;3.10;99.90;;;;;;5067984;28;20405;-68
2021/04/14 05:52:35;;;;;;;17.63;11.20;;;3.10;99.90;;;;;;5066595;28;20060;-67
2021/04/14 05:55:02;;;;;;;18.17;11.02;;;3.10;99.90;;;;;;5071973;28;20068;-67
2021/04/14 05:57:27;;;;;;;16.20;11.35;;;3.20;99.90;;;;;;5068279;28;20095;-67
2021/04/14 05:59:53;;;;;;;19.42;12.38;;;3.20;99.90;;;;;;5068363;28;20549;-67
2021/04/14 06:02:19;;;;;;;16.17;11.57;;;3.20;99.90;;;;;;5068759;28;20107;-67
2021/04/14 06:04:44;;;;;;;21.23;13.55;;;3.20;99.90;;;;;;5065139;28;20029;-67
2021/04/14 06:07:10;;;;;;;19.15;12.38;;;3.20;99.90;;;;;;5070387;28;20009;-67
2021/04/14 06:09:35;;;;;;;18.45;10.88;;;3.20;99.90;;;;;;5071134;28;20468;-67
2021/04/14 06:12:01;;;;;;;17.90;10.82;;;3.20;99.90;;;;;;5066374;28;20028;-67
2021/04/14 06:14:26;;;;;;;16.27;10.95;;;3.20;99.90;;;;;;5066531;28;20024;-67
2021/04/14 06:16:52;;;;;;;17.38;12.23;;;3.30;99.90;;;;;;5064299;28;20086;-67
2021/04/14 06:19:18;;;;;;;16.20;11.38;;;3.40;99.90;;;;;;5062662;28;20376;-67
2021/04/14 06:21:44;;;;;;;17.58;10.55;;;3.30;99.90;;;;;;5068398;28;20389;-66
2021/04/14 06:24:10;;;;;;;18.80;12.25;;;3.40;99.90;;;;;;5066681;28;20028;-67
2021/04/14 06:26:56;;;;;;;25.17;15.27;;;3.50;99.90;;;;;;5065818;28;20133;-67
2021/04/14 06:29:22;;;;;;;33.28;18.45;;;3.60;99.90;;;;;;5070295;28;20048;-67
2021/04/14 06:31:48;;;;;;;27.50;16.75;;;3.70;99.90;;;;;;5065873;28;20017;-67
2021/04/14 06:34:20;;;;;;;23.85;14.85;;;3.80;99.90;;;;;;5065893;28;20106;-68
2021/04/14 06:36:48;;;;;;;20.23;12.38;;;3.80;99.90;;;;;;5066493;28;20044;-67
2021/04/14 06:39:16;;;;;;;19.48;12.85;;;3.80;99.90;;;;;;5072111;28;20070;-68
2021/04/14 06:42:13;;;;;;;19.15;12.55;;;3.90;99.90;;;;;;5063962;28;20546;-67
2021/04/14 06:45:06;;;;;;;24.90;15.15;;;3.90;99.90;;;;;;5068652;28;20116;-68
2021/04/14 06:47:51;;;;;;;27.70;15.25;;;4.00;99.90;;;;;;5063652;28;20097;-68
2021/04/14 06:50:49;;;;;;;28.38;14.75;;;4.20;99.90;;;;;;5072313;28;20124;-67
2021/04/14 06:53:33;;;;;;;25.95;14.73;;;4.30;99.90;;;;;;5070607;28;20041;-68
2021/04/14 06:56:15;;;;;;;23.48;14.70;;;4.40;99.90;;;;;;5071372;28;20056;-67
2021/04/14 06:59:05;;;;;;;26.05;14.15;;;4.50;99.90;;;;;;5072273;28;20036;-68
2021/04/14 07:01:34;;;;;;;22.42;13.82;;;4.50;99.90;;;;;;5075612;28;20032;-67
2021/04/14 07:04:13;;;;;;;22.33;14.55;;;4.60;99.90;;;;;;5071810;28;20024;-67
2021/04/14 07:06:41;;;;;;;25.25;13.75;;;4.80;99.90;;;;;;5069369;28;20020;-67
2021/04/14 07:09:10;;;;;;;17.20;11.43;;;4.90;99.90;;;;;;5074218;28;20041;-67
2021/04/14 07:11:36;;;;;;;22.55;11.65;;;4.90;99.90;;;;;;5072336;28;20036;-67
2021/04/14 07:14:03;;;;;;;18.65;10.05;;;5.10;99.90;;;;;;5069364;28;20032;-67
2021/04/14 07:16:34;;;;;;;16.02;9.50;;;5.10;99.90;;;;;;5070464;28;20031;-67
2021/04/14 07:19:31;;;;;;;12.93;9.50;;;5.20;99.90;;;;;;5073063;28;20031;-67
2021/04/14 07:22:24;;;;;;;14.70;9.13;;;5.40;99.90;;;;;;5069258;28;20036;-67
2021/04/14 07:24:58;;;;;;;17.10;9.70;;;5.50;99.90;;;;;;5067956;28;20048;-68
2021/04/14 07:27:55;;;;;;;19.75;11.70;;;5.60;99.90;;;;;;5070382;28;20032;-68
2021/04/14 07:30:30;;;;;;;18.95;8.70;;;5.70;99.90;;;;;;5069199;28;20032;-68
2021/04/14 07:33:13;;;;;;;17.58;8.13;;;5.90;99.90;;;;;;5069948;28;20029;-68
2021/04/14 07:36:06;;;;;;;17.13;8.90;;;6.10;99.90;;;;;;5068204;28;20017;-68
2021/04/14 07:39:03;;;;;;;14.40;8.38;;;6.20;99.90;;;;;;5084951;28;20090;-69
2021/04/14 07:41:42;;;;;;;17.08;8.20;;;6.50;99.90;;;;;;5069266;28;20025;-69
2021/04/14 07:44:33;;;;;;;16.92;7.65;;;6.70;99.90;;;;;;5071995;28;20029;-69
2021/04/14 07:47:00;;;;;;;15.07;8.07;;;6.80;99.90;;;;;;5068619;28;20032;-69
2021/04/14 07:49:32;;;;;;;12.73;7.43;;;7.00;99.90;;;;;;5070699;28;20040;-71
2021/04/14 07:51:58;;;;;;;16.50;8.40;;;7.10;99.90;;;;;;5066534;28;20095;-69
2021/04/14 07:54:25;;;;;;;14.18;8.50;;;7.40;99.90;;;;;;5067131;28;20112;-68
2021/04/14 07:56:55;;;;;;;13.10;7.88;;;7.50;99.90;;;;;;5066268;28;20074;-68
2021/04/14 07:59:33;;;;;;;18.40;9.10;;;7.80;99.90;;;;;;5069236;28;20063;-68
2021/04/14 08:02:32;;;;;;;19.95;9.05;;;7.80;99.90;;;;;;5071495;28;20407;-68
2021/04/14 08:05:26;;;;;;;12.38;8.30;;;8.00;99.90;;;;;;5052470;28;20067;-68
2021/04/14 08:07:52;;;;;;;21.20;7.78;;;8.20;99.90;;;;;;5068199;28;20029;-68
2021/04/14 08:10:24;;;;;;;19.67;8.00;;;8.30;99.90;;;;;;5078350;28;20166;-68
2021/04/14 08:13:03;;;;;;;18.67;8.47;;;8.30;99.90;;;;;;5072293;28;20036;-68
2021/04/14 08:15:35;;;;;;;12.88;8.82;;;8.40;99.90;;;;;;5070820;28;20039;-67
2021/04/14 08:18:31;;;;;;;14.10;8.45;;;8.40;99.90;;;;;;5069342;28;20528;-67
2021/04/14 08:21:08;;;;;;;16.60;7.60;;;8.50;99.90;;;;;;5066137;28;20047;-68
2021/04/14 08:23:34;;;;;;;12.60;7.30;;;8.60;99.90;;;;;;5062113;28;20437;-68
2021/04/14 08:26:11;;;;;;;10.55;7.57;;;8.70;99.90;;;;;;5073792;28;20490;-68
2021/04/14 08:28:42;;;;;;;13.88;8.07;;;8.80;99.90;;;;;;5063745;28;20021;-69
2021/04/14 08:34:35;;;;;;;18.15;8.68;;;8.90;99.90;;;;;;5071735;28;20039;-68
2021/04/14 08:37:19;;;;;;;14.15;8.18;;;9.20;99.90;;;;;;5063940;28;20127;-68
2021/04/14 08:39:51;;;;;;;14.32;8.32;;;9.30;99.90;;;;;;5070208;28;20543;-68
2021/04/14 08:42:19;;;;;;;15.25;7.97;;;9.40;99.90;;;;;;5064169;28;20021;-68
2021/04/14 08:44:48;;;;;;;19.13;8.48;;;9.60;99.90;;;;;;5066996;28;20066;-67
2021/04/14 08:47:25;;;;;;;18.35;9.32;;;9.60;99.90;;;;;;5066706;28;20492;-68
2021/04/14 08:50:15;;;;;;;15.32;8.43;;;9.70;99.90;;;;;;5069710;28;20024;-68
2021/04/14 08:52:49;;;;;;;16.55;9.07;;;9.80;99.90;;;;;;5069609;28;20038;-68
2021/04/14 08:55:17;;;;;;;16.15;8.43;;;9.70;99.90;;;;;;5068403;28;20040;-68
2021/04/14 08:57:45;;;;;;;20.80;9.02;;;9.90;99.20;;;;;;5068067;28;20020;-68
2021/04/14 09:00:11;;;;;;;14.57;8.00;;;9.90;99.00;;;;;;5072190;28;20471;-68
2021/04/14 09:02:40;;;;;;;15.57;8.23;;;10.00;98.80;;;;;;5069850;28;20082;-68
2021/04/14 09:05:09;;;;;;;13.77;7.72;;;10.20;99.10;;;;;;5067925;28;20032;-68
2021/04/14 09:07:39;;;;;;;15.02;7.70;;;10.30;97.90;;;;;;5064454;28;20074;-68
2021/04/14 09:10:10;;;;;;;14.32;7.90;;;10.50;98.60;;;;;;5067859;28;20036;-68
2021/04/14 09:12:57;;;;;;;12.27;7.70;;;10.50;96.30;;;;;;5070239;28;20103;-68
2021/04/14 09:15:22;;;;;;;15.95;7.60;;;10.30;94.20;;;;;;5067520;28;20313;-68
2021/04/14 09:18:00;;;;;;;15.68;7.55;;;10.20;94.50;;;;;;5069019;28;20029;-68
2021/04/14 09:20:38;;;;;;;12.55;7.53;;;10.10;95.20;;;;;;5062393;28;20028;-68
2021/04/14 09:23:13;;;;;;;14.30;7.07;;;10.10;97.10;;;;;;5067990;28;20082;-68
2021/04/14 09:25:45;;;;;;;14.02;7.63;;;10.10;95.60;;;;;;5068532;28;20466;-68
2021/04/14 09:28:24;;;;;;;12.07;7.45;;;10.10;95.80;;;;;;5079211;28;20117;-69
2021/04/14 09:30:56;;;;;;;14.15;7.70;;;10.10;95.50;;;;;;5067401;28;20044;-68
2021/04/14 09:33:45;;;;;;;17.88;8.10;;;10.10;94.00;;;;;;5064368;28;20021;-68
2021/04/14 09:36:14;;;;;;;13.20;6.88;;;10.10;93.90;;;;;;5066261;28;20111;-68
2021/04/14 09:38:47;;;;;;;12.30;7.55;;;10.00;94.10;;;;;;5068240;28;20052;-68
2021/04/14 09:41:25;;;;;;;13.90;7.93;;;9.90;94.90;;;;;;5071370;28;20035;-68
2021/04/14 09:43:56;;;;;;;13.05;7.85;;;9.90;95.00;;;;;;5070215;28;20427;-68
2021/04/14 09:46:30;;;;;;;14.65;7.68;;;9.90;95.20;;;;;;5066468;28;20050;-68
2021/04/14 09:49:12;;;;;;;13.63;7.05;;;9.90;94.80;;;;;;5067055;28;20028;-68
2021/04/14 09:51:41;;;;;;;15.13;7.30;;;9.90;95.50;;;;;;5067284;28;20496;-69
2021/04/14 09:54:17;;;;;;;17.20;7.53;;;9.90;94.90;;;;;;5065119;28;20063;-68
2021/04/14 09:56:49;;;;;;;14.95;6.38;;;10.00;93.20;;;;;;5066360;28;20056;-68
2021/04/14 09:59:22;;;;;;;13.52;7.30;;;10.00;92.50;;;;;;5064599;28;20103;-69
2021/04/14 10:01:50;;;;;;;10.93;6.63;;;10.00;93.00;;;;;;5060944;28;20025;-68
2021/04/14 10:04:23;;;;;;;15.43;7.22;;;10.00;94.00;;;;;;5066439;28;20012;-66
2021/04/14 10:06:55;;;;;;;13.38;6.47;;;9.90;93.90;;;;;;5068559;28;20021;-66
2021/04/14 10:09:30;;;;;;;12.45;5.88;;;9.90;95.30;;;;;;5067054;28;20028;-66
2021/04/14 10:12:17;;;;;;;11.98;7.28;;;9.90;94.10;;;;;;5066854;28;20017;-66
2021/04/14 10:14:50;;;;;;;11.88;7.20;;;9.70;95.10;;;;;;5064937;28;20448;-67
2021/04/14 10:17:23;;;;;;;;;;;9.70;95.40;;;;;;5067347;28;20024;-66
2021/04/14 10:19:55;;;;;;;14.15;7.60;;;9.70;96.30;;;;;;5068813;28;19979;-66
2021/04/14 10:22:40;;;;;;;10.87;7.53;;;9.60;96.10;;;;;;5068088;28;20013;-67
2021/04/14 10:25:32;;;;;;;13.07;6.20;;;9.50;97.50;;;;;;5073181;28;20044;-67
2021/04/14 10:28:15;;;;;;;11.55;7.43;;;9.70;95.70;;;;;;5074627;28;20036;-67
2021/04/14 10:31:08;;;;;;;12.80;7.15;;;10.00;96.70;;;;;;5069528;28;20050;-67
2021/04/14 10:33:38;;;;;;;9.40;6.03;;;10.10;94.10;;;;;;5069740;28;20021;-67
2021/04/14 10:36:29;;;;;;;10.55;6.20;;;10.20;95.20;;;;;;5073585;28;20021;-68
2021/04/14 10:38:55;;;;;;;10.50;6.70;;;10.30;95.90;;;;;;5066345;28;20047;-67
2021/04/14 10:41:30;;;;;;;13.75;7.18;;;10.20;95.00;;;;;;5070263;28;20020;-68
2021/04/14 10:43:57;;;;;;;9.68;7.05;;;10.20;94.30;;;;;;5068942;28;20094;-68
2021/04/14 10:46:26;;;;;;;12.13;6.35;;;10.10;96.90;;;;;;5070459;28;20506;-68
2021/04/14 10:49:05;;;;;;;11.70;6.32;;;10.00;97.40;;;;;;5067240;28;20893;-68
2021/04/14 10:51:33;;;;;;;10.65;6.50;;;10.10;97.20;;;;;;5072906;28;20025;-68
2021/04/14 10:54:00;;;;;;;9.25;6.10;;;10.00;96.00;;;;;;5077260;28;20097;-67
2021/04/14 10:56:31;;;;;;;12.50;6.97;;;10.10;96.30;;;;;;5070225;28;20058;-68
2021/04/14 10:59:03;;;;;;;13.20;7.75;;;10.00;96.90;;;;;;5077790;28;20032;-68
2021/04/14 11:01:35;;;;;;;13.60;7.80;;;10.00;98.30;;;;;;5074680;28;20362;-68
2021/04/14 11:04:27;;;;;;;15.85;7.80;;;10.00;98.40;;;;;;5073386;28;20021;-68
2021/04/14 11:07:00;;;;;;;9.15;7.15;;;10.00;99.10;;;;;;5072299;28;20079;-68
2021/04/14 11:09:28;;;;;;;13.68;8.02;;;9.90;98.50;;;;;;5073167;28;20028;-68
2021/04/14 11:11:54;;;;;;;10.27;7.40;;;10.10;98.80;;;;;;5071557;28;20450;-68
2021/04/14 11:14:20;;;;;;;13.27;7.88;;;10.20;98.40;;;;;;5071448;28;20088;-68
2021/04/14 11:16:49;;;;;;;9.75;7.53;;;10.10;98.20;;;;;;5074758;28;20025;-68
2021/04/14 11:19:25;;;;;;;10.63;7.65;;;10.00;99.40;;;;;;5069910;28;20166;-68
2021/04/14 11:22:06;;;;;;;11.70;8.18;;;10.00;99.90;;;;;;5069444;28;20376;-68
2021/04/14 11:24:56;;;;;;;14.48;7.85;;;10.10;99.90;;;;;;5069188;28;20082;-68
2021/04/14 11:27:28;;;;;;;10.98;7.30;;;9.90;99.60;;;;;;5069549;28;20021;-68
2021/04/14 11:30:15;;;;;;;11.07;7.60;;;10.10;99.80;;;;;;5066126;28;20120;-68
2021/04/14 11:32:51;;;;;;;14.27;7.97;;;10.20;99.90;;;;;;5069697;28;20029;-68
2021/04/14 11:35:28;;;;;;;11.23;7.60;;;10.10;99.90;;;;;;5070957;28;20484;-68
2021/04/14 11:37:53;;;;;;;11.30;8.43;;;9.90;99.90;;;;;;5070743;28;20024;-68
2021/04/14 11:40:19;;;;;;;10.52;7.72;;;9.90;99.70;;;;;;5075399;28;20032;-68
2021/04/14 11:43:00;;;;;;;12.85;9.23;;;9.90;99.90;;;;;;5068185;28;20029;-68
2021/04/14 11:45:35;;;;;;;11.20;7.72;;;10.00;99.90;;;;;;5068096;28;20058;-68
2021/04/14 11:48:06;;;;;;;13.60;8.77;;;10.10;99.70;;;;;;5071195;28;20029;-68
2021/04/14 11:50:33;;;;;;;15.15;8.75;;;10.20;99.70;;;;;;5067115;28;20033;-68
2021/04/14 11:53:01;;;;;;;12.48;8.63;;;10.00;99.40;;;;;;5073175;28;20024;-68
2021/04/14 11:55:26;;;;;;;13.20;8.48;;;10.00;99.30;;;;;;5068499;28;20033;-68
2021/04/14 11:57:57;;;;;;;14.18;8.32;;;9.90;99.50;;;;;;5071167;28;20549;-68
2021/04/14 12:00:29;;;;;;;10.95;8.35;;;9.90;99.90;;;;;;5064875;28;20031;-68
2021/04/14 12:03:13;;;;;;;13.93;10.35;;;9.90;99.90;;;;;;5067887;28;20087;-67
2021/04/14 12:05:39;;;;;;;14.82;9.95;;;10.20;99.70;;;;;;5065868;28;20048;-67
2021/04/14 12:08:05;;;;;;;15.55;11.18;;;10.50;99.90;;;;;;5069146;28;20063;-67
2021/04/14 12:10:30;;;;;;;15.88;10.07;;;10.70;99.90;;;;;;5066452;28;20029;-67
2021/04/14 12:12:57;;;;;;;14.93;10.40;;;10.40;99.90;;;;;;5067815;28;20468;-67
2021/04/14 12:15:22;;;;;;;15.40;10.38;;;10.40;99.90;;;;;;5071087;28;20020;-66
2021/04/14 12:17:48;;;;;;;14.68;10.88;;;10.30;99.90;;;;;;5068527;28;20024;-67
2021/04/14 12:20:15;;;;;;;14.48;10.50;;;10.30;99.90;;;;;;5068737;28;20025;-67
2021/04/14 12:22:40;;;;;;;14.63;11.20;;;10.50;99.90;;;;;;5071716;28;20025;-68
2021/04/14 12:25:08;;;;;;;13.55;10.05;;;10.40;99.90;;;;;;5069015;28;20032;-67
2021/04/14 12:27:33;;;;;;;13.75;9.80;;;10.50;99.90;;;;;;5072877;28;20103;-67
2021/04/14 12:29:59;;;;;;;13.27;9.95;;;10.50;99.30;;;;;;5068872;28;20162;-68
2021/04/14 12:32:25;;;;;;;13.05;9.45;;;10.50;99.90;;;;;;5069524;28;20031;-68
2021/04/14 12:34:50;;;;;;;13.60;9.93;;;10.70;98.50;;;;;;5068958;28;20029;-68
2021/04/14 12:37:16;;;;;;;18.60;11.55;;;10.90;99.10;;;;;;5064071;28;20036;-68
2021/04/14 12:39:42;;;;;;;13.93;10.43;;;11.10;97.80;;;;;;5064568;28;20138;-68
2021/04/14 12:42:09;;;;;;;15.23;10.13;;;11.40;97.40;;;;;;5073114;28;20020;-67
2021/04/14 12:44:35;;;;;;;12.77;9.50;;;11.40;98.60;;;;;;5071342;28;20578;-68
2021/04/14 12:47:00;;;;;;;14.77;11.00;;;11.30;96.40;;;;;;5068148;28;20156;-68
2021/04/14 12:49:27;;;;;;;17.70;10.60;;;11.40;96.90;;;;;;5065388;28;20032;-68
2021/04/14 12:51:55;;;;;;;12.45;10.07;;;11.60;98.40;;;;;;5071534;28;20048;-68
2021/04/14 12:54:29;;;;;;;13.38;10.23;;;11.80;97.70;;;;;;5064764;28;20025;-68
2021/04/14 12:57:02;;;;;;;14.10;10.10;;;12.00;96.80;;;;;;5068633;28;20059;-68